createdAt,value
2019-04-11T00:01:12.738Z,5.86
2019-04-11T00:03:41.775Z,5.99
2019-04-11T00:06:11.734Z,6.19
2019-04-11T00:08:41.697Z,6.31
2019-04-11T00:11:11.517Z,6.29
2019-04-11T00:13:41.130Z,6.43
2019-04-11T00:16:09.935Z,6.19
2019-04-11T00:18:38.825Z,5.92
2019-04-11T00:21:08.645Z,5.64
2019-04-11T00:23:38.539Z,5.44
2019-04-11T00:26:08.324Z,5.30
2019-04-11T00:28:37.464Z,5.43
2019-04-11T00:31:06.407Z,5.39
2019-04-11T00:33:35.191Z,5.42
2019-04-11T00:36:04.191Z,5.61
2019-04-11T00:38:34.015Z,5.82
2019-04-11T00:41:03.752Z,5.77
2019-04-11T00:43:37.689Z,5.76
2019-04-11T00:46:02.951Z,5.81
2019-04-11T00:48:31.447Z,5.93
2019-04-11T00:50:59.998Z,5.80
2019-04-11T00:53:28.456Z,5.56
2019-04-11T00:55:57.022Z,5.32
2019-04-11T00:58:25.754Z,5.16
2019-04-11T01:00:54.138Z,4.87
2019-04-11T01:03:22.861Z,4.81
2019-04-11T01:05:51.973Z,4.84
2019-04-11T01:08:21.782Z,5.04
2019-04-11T01:10:50.449Z,5.29
2019-04-11T01:13:19.192Z,5.49
2019-04-11T01:15:52.424Z,5.55
2019-04-11T01:18:20.815Z,5.58
2019-04-11T01:20:49.496Z,5.58
2019-04-11T01:23:18.564Z,5.62
2019-04-11T01:25:48.543Z,5.67
2019-04-11T01:28:17.117Z,5.40
2019-04-11T01:30:47.451Z,5.25
2019-04-11T01:33:15.998Z,4.75
2019-04-11T01:35:45.673Z,4.64
2019-04-11T01:38:14.995Z,4.77
2019-04-11T01:40:43.738Z,4.85
2019-04-11T01:43:13.552Z,5.10
2019-04-11T01:45:43.343Z,5.32
2019-04-11T01:48:23.698Z,5.43
2019-04-11T01:50:53.569Z,5.45
2019-04-11T01:53:42.207Z,5.47
2019-04-11T01:56:11.062Z,5.36
2019-04-11T01:58:40.611Z,5.25
2019-04-11T02:01:10.983Z,5.14
2019-04-11T02:03:49.949Z,4.93
2019-04-11T02:06:18.578Z,4.49
2019-04-11T02:08:47.254Z,4.22
2019-04-11T02:11:15.814Z,4.10
2019-04-11T02:13:44.427Z,4.18
2019-04-11T02:16:13.006Z,4.48
2019-04-11T02:18:41.601Z,4.72
2019-04-11T02:21:10.185Z,4.91
2019-04-11T02:23:41.384Z,5.06
2019-04-11T02:26:27.331Z,5.08
2019-04-11T02:28:55.872Z,5.10
2019-04-11T02:31:26.367Z,4.92
2019-04-11T02:33:57.256Z,4.80
2019-04-11T02:36:27.343Z,4.79
2019-04-11T02:38:58.905Z,4.48
2019-04-11T02:41:27.552Z,4.34
2019-04-11T02:43:57.540Z,4.11
2019-04-11T02:46:35.623Z,4.14
2019-04-11T02:48:58.910Z,4.26
2019-04-11T02:51:28.864Z,4.32
2019-04-11T02:53:58.955Z,4.58
2019-04-11T02:56:27.970Z,4.64
2019-04-11T02:58:56.652Z,4.81
2019-04-11T03:01:26.335Z,4.84
2019-04-11T03:03:57.031Z,4.87
2019-04-11T03:06:28.003Z,4.84
2019-04-11T03:08:57.622Z,4.70
2019-04-11T03:11:27.596Z,4.76
2019-04-11T03:13:58.347Z,4.32
2019-04-11T03:16:38.241Z,3.91
2019-04-11T03:19:16.142Z,3.54
2019-04-11T03:21:30.994Z,3.38
2019-04-11T03:24:00.693Z,3.42
2019-04-11T03:26:31.025Z,3.49
2019-04-11T03:29:01.850Z,3.84
2019-04-11T03:32:14.384Z,4.21
2019-04-11T03:34:52.074Z,4.26
2019-04-11T03:39:21.770Z,4.30
2019-04-11T03:41:51.881Z,4.34
2019-04-11T03:44:12.081Z,4.35
2019-04-11T03:46:49.260Z,4.42
2019-04-11T03:49:17.782Z,4.20
2019-04-11T03:51:34.543Z,3.94
2019-04-11T03:54:05.008Z,3.61
2019-04-11T03:56:35.053Z,3.55
2019-04-11T03:59:04.171Z,3.52
2019-04-11T04:01:34.983Z,3.65
2019-04-11T04:04:04.138Z,3.84
2019-04-11T04:06:33.573Z,4.06
2019-04-11T04:09:02.795Z,4.19
2019-04-11T04:11:34.138Z,4.32
2019-04-11T04:14:04.258Z,4.46
2019-04-11T04:16:56.463Z,4.40
2019-04-11T04:19:32.859Z,4.30
2019-04-11T04:22:04.928Z,4.30
2019-04-11T04:24:39.758Z,4.21
2019-04-11T04:27:07.657Z,4.03
2019-04-11T04:29:37.935Z,3.66
2019-04-11T04:32:08.247Z,3.61
2019-04-11T04:34:37.328Z,3.43
2019-04-11T04:37:07.718Z,3.51
2019-04-11T04:39:39.011Z,3.67
2019-04-11T04:42:17.176Z,3.75
2019-04-11T04:44:40.266Z,3.91
2019-04-11T04:47:17.846Z,4.00
2019-04-11T04:49:40.735Z,4.29
2019-04-11T04:52:10.331Z,4.29
2019-04-11T04:54:40.953Z,4.28
2019-04-11T04:57:12.901Z,4.43
2019-04-11T04:59:42.333Z,4.22
2019-04-11T05:02:11.031Z,3.94
2019-04-11T05:04:40.570Z,3.72
2019-04-11T05:07:09.610Z,3.67
2019-04-11T05:09:38.528Z,3.77
2019-04-11T05:12:09.903Z,3.95
2019-04-11T05:14:39.365Z,4.09
2019-04-11T05:17:08.747Z,4.22
2019-04-11T05:19:38.344Z,4.37
2019-04-11T05:22:07.093Z,4.29
2019-04-11T05:24:36.828Z,4.35
2019-04-11T05:27:06.232Z,4.53
2019-04-11T05:29:35.585Z,4.59
2019-04-11T05:32:05.183Z,4.77
2019-04-11T05:34:35.111Z,4.69
2019-04-11T05:37:04.022Z,4.58
2019-04-11T05:39:33.782Z,4.36
2019-04-11T05:42:03.160Z,4.07
2019-04-11T05:44:32.595Z,4.17
2019-04-11T05:47:03.534Z,4.35
2019-04-11T05:49:37.256Z,4.50
2019-04-11T05:52:06.085Z,4.67
2019-04-11T05:54:49.754Z,4.96
2019-04-11T05:57:23.808Z,5.10
2019-04-11T05:59:52.859Z,5.16
2019-04-11T06:02:30.986Z,5.42
2019-04-11T06:05:07.180Z,5.50
2019-04-11T06:07:57.291Z,5.61
2019-04-11T06:10:28.395Z,5.57
2019-04-11T06:13:12.087Z,5.45
2019-04-11T06:15:43.982Z,5.20
2019-04-11T06:18:29.645Z,4.92
2019-04-11T06:20:55.754Z,4.86
2019-04-11T06:23:45.580Z,4.94
2019-04-11T06:26:25.088Z,5.03
2019-04-11T06:28:56.705Z,5.34
2019-04-11T06:31:45.391Z,5.57
2019-04-11T06:34:14.130Z,5.67
2019-04-11T06:36:45.290Z,5.76
2019-04-11T06:39:19.129Z,5.97
2019-04-11T06:41:55.107Z,6.30
2019-04-11T06:44:28.038Z,6.54
2019-04-11T06:47:00.639Z,6.60
2019-04-11T06:49:30.792Z,7.66
2019-04-11T06:52:16.757Z,8.16
2019-04-11T06:54:47.471Z,8.58
2019-04-11T06:57:18.072Z,9.03
2019-04-11T06:59:48.405Z,10.90
2019-04-11T07:02:20.294Z,11.53
2019-04-11T07:04:49.632Z,13.38
2019-04-11T07:07:18.968Z,13.52
2019-04-11T07:09:53.304Z,12.55
2019-04-11T07:12:24.461Z,11.52
2019-04-11T07:15:12.138Z,10.81
2019-04-11T07:17:58.932Z,10.48
2019-04-11T07:20:45.562Z,10.08
2019-04-11T07:23:32.968Z,9.95
2019-04-11T07:26:06.453Z,9.76
2019-04-11T07:28:36.733Z,9.73
2019-04-11T07:31:23.346Z,9.71
2019-04-11T07:34:10.662Z,9.47
2019-04-11T07:36:57.918Z,9.97
2019-04-11T07:39:28.874Z,10.42
2019-04-11T07:42:00.322Z,10.85
2019-04-11T07:44:34.074Z,11.24
2019-04-11T07:47:23.197Z,11.62
2019-04-11T07:49:54.941Z,11.99
2019-04-11T07:52:30.509Z,12.48
2019-04-11T07:54:58.215Z,12.62
2019-04-11T07:57:28.502Z,12.93
2019-04-11T07:59:59.950Z,12.49
2019-04-11T08:02:47.795Z,12.27
2019-04-11T08:05:34.590Z,12.38
2019-04-11T08:08:21.519Z,12.47
2019-04-11T08:10:54.850Z,12.71
2019-04-11T08:13:26.267Z,13.18
2019-04-11T08:16:13.014Z,13.35
2019-04-11T08:18:45.987Z,13.58
2019-04-11T08:21:34.580Z,13.45
2019-04-11T08:24:04.456Z,12.61
2019-04-11T08:26:50.876Z,12.79
2019-04-11T08:29:20.756Z,13.23
2019-04-11T08:32:00.471Z,13.15
2019-04-11T08:34:31.195Z,12.87
2019-04-11T08:37:05.379Z,13.12
2019-04-11T08:39:35.311Z,13.38
2019-04-11T08:42:09.403Z,13.72
2019-04-11T08:44:37.941Z,13.91
2019-04-11T08:47:07.761Z,13.91
2019-04-11T08:49:41.875Z,13.72
2019-04-11T08:52:12.118Z,13.63
2019-04-11T08:54:58.801Z,13.55
2019-04-11T08:57:31.950Z,13.53
2019-04-11T09:00:02.323Z,13.66
2019-04-11T09:02:33.273Z,13.63
2019-04-11T09:05:13.124Z,13.76
2019-04-11T09:07:38.463Z,13.76
2019-04-11T09:10:26.204Z,13.98
2019-04-11T09:13:02.853Z,14.36
2019-04-11T09:15:43.218Z,14.54
2019-04-11T09:18:13.743Z,14.85
2019-04-11T09:21:00.250Z,14.73
2019-04-11T09:23:29.998Z,14.61
2019-04-11T09:26:01.596Z,15.06
2019-04-11T09:28:35.613Z,15.20
2019-04-11T09:31:08.148Z,15.23
2019-04-11T09:33:55.363Z,15.15
2019-04-11T09:36:32.326Z,15.06
2019-04-11T09:39:02.639Z,15.42
2019-04-11T09:41:32.735Z,15.73
2019-04-11T09:44:08.776Z,15.75
2019-04-11T09:46:54.869Z,15.80
2019-04-11T09:49:25.023Z,15.63
2019-04-11T09:51:56.037Z,14.97
2019-04-11T09:54:26.350Z,15.22
2019-04-11T09:57:05.789Z,15.62
2019-04-11T09:59:39.367Z,15.67
2019-04-11T10:02:16.853Z,15.81
2019-04-11T10:04:48.087Z,15.43
2019-04-11T10:07:28.111Z,14.81
2019-04-11T10:09:58.618Z,14.87
2019-04-11T10:12:38.309Z,15.08
2019-04-11T10:15:09.207Z,14.99
2019-04-11T10:17:46.167Z,15.22
2019-04-11T10:20:18.286Z,15.79
2019-04-11T10:22:48.629Z,15.98
2019-04-11T10:25:19.196Z,15.41
2019-04-11T10:27:49.431Z,14.80
2019-04-11T10:30:35.950Z,14.92
2019-04-11T10:33:09.001Z,14.77
2019-04-11T10:35:56.736Z,14.57
2019-04-11T10:38:26.403Z,14.58
2019-04-11T10:41:00.767Z,15.05
2019-04-11T10:43:32.075Z,15.16
2019-04-11T10:46:05.128Z,15.43
2019-04-11T10:48:46.711Z,15.88
2019-04-11T10:51:17.090Z,15.82
2019-04-11T10:53:47.047Z,15.72
2019-04-11T10:56:26.490Z,15.78
2019-04-11T10:58:55.440Z,16.03
2019-04-11T11:01:28.660Z,15.65
2019-04-11T11:04:01.601Z,15.35
2019-04-11T11:06:31.623Z,15.19
2019-04-11T11:09:04.582Z,15.37
2019-04-11T11:11:34.824Z,15.44
2019-04-11T11:14:12.280Z,15.73
2019-04-11T11:16:44.859Z,15.45
2019-04-11T11:19:40.311Z,15.19
2019-04-11T11:21:53.334Z,15.02
2019-04-11T11:24:39.067Z,15.14
2019-04-11T11:27:07.349Z,15.45
2019-04-11T11:29:37.718Z,15.72
2019-04-11T11:32:09.093Z,15.60
2019-04-11T11:34:51.285Z,15.55
2019-04-11T11:37:39.664Z,15.56
2019-04-11T11:40:26.314Z,15.62
2019-04-11T11:43:08.710Z,15.64
2019-04-11T11:45:53.664Z,15.63
2019-04-11T11:48:31.707Z,15.84
2019-04-11T11:51:01.863Z,16.06
2019-04-11T11:53:49.060Z,16.11
2019-04-11T11:56:18.120Z,16.11
2019-04-11T11:58:53.347Z,16.41
2019-04-11T12:01:24.065Z,16.64
2019-04-11T12:04:10.799Z,16.94
2019-04-11T12:06:41.239Z,16.99
2019-04-11T12:09:28.761Z,16.76
2019-04-11T12:12:07.997Z,16.84
2019-04-11T12:14:43.187Z,16.80
2019-04-11T12:17:12.564Z,17.00
2019-04-11T12:19:51.083Z,17.00
2019-04-11T12:22:13.493Z,16.70
2019-04-11T12:24:46.691Z,16.15
2019-04-11T12:27:18.269Z,15.85
2019-04-11T12:30:07.050Z,15.45
2019-04-11T12:32:42.363Z,15.59
2019-04-11T12:35:13.644Z,15.71
2019-04-11T12:37:50.347Z,15.43
2019-04-11T12:40:34.988Z,15.45
2019-04-11T12:43:05.236Z,15.33
2019-04-11T12:45:35.394Z,15.52
2019-04-11T12:48:04.391Z,15.99
2019-04-11T12:50:36.862Z,16.03
2019-04-11T12:53:06.972Z,15.60
2019-04-11T12:55:55.267Z,15.47
2019-04-11T12:58:37.453Z,15.33
2019-04-11T13:01:26.253Z,14.73
2019-04-11T13:04:02.429Z,14.41
2019-04-11T13:06:35.922Z,14.61
2019-04-11T13:09:23.927Z,14.98
2019-04-11T13:11:54.013Z,15.26
2019-04-11T13:14:42.323Z,15.44
2019-04-11T13:17:21.391Z,15.18
2019-04-11T13:20:09.668Z,15.51
2019-04-11T13:22:38.545Z,15.23
2019-04-11T13:25:15.549Z,15.24
2019-04-11T13:27:45.666Z,15.58
2019-04-11T13:30:21.962Z,15.74
2019-04-11T13:32:52.218Z,15.42
2019-04-11T13:35:28.235Z,15.38
2019-04-11T13:38:05.163Z,15.06
2019-04-11T13:40:44.435Z,14.70
2019-04-11T13:43:23.872Z,14.55
2019-04-11T13:46:00.345Z,14.48
2019-04-11T13:48:48.720Z,14.44
2019-04-11T13:51:31.578Z,14.74
2019-04-11T13:54:18.145Z,15.18
2019-04-11T13:57:03.733Z,15.37
2019-04-11T13:59:36.987Z,15.20
2019-04-11T14:02:17.219Z,14.47
2019-04-11T14:04:56.175Z,14.26
2019-04-11T14:07:26.659Z,13.93
2019-04-11T14:10:09.097Z,14.08
2019-04-11T14:12:38.674Z,14.19
2019-04-11T14:15:24.747Z,14.41
2019-04-11T14:18:11.789Z,14.74
2019-04-11T14:20:45.409Z,14.81
2019-04-11T14:23:24.480Z,14.71
2019-04-11T14:26:10.044Z,14.71
2019-04-11T14:28:43.201Z,15.01
2019-04-11T14:31:22.804Z,15.29
2019-04-11T14:33:55.528Z,15.37
2019-04-11T14:36:33.141Z,15.23
2019-04-11T14:38:56.901Z,15.27
2019-04-11T14:41:43.038Z,15.30
2019-04-11T14:44:11.537Z,15.19
2019-04-11T14:46:47.819Z,14.86
2019-04-11T14:49:16.414Z,14.69
2019-04-11T14:51:46.882Z,14.29
2019-04-11T14:54:20.082Z,14.02
2019-04-11T14:56:59.142Z,14.15
2019-04-11T14:59:45.886Z,14.35
2019-04-11T15:02:16.202Z,14.48
2019-04-11T15:05:06.183Z,14.86
2019-04-11T15:07:36.343Z,14.81
2019-04-11T15:10:23.103Z,14.52
2019-04-11T15:12:53.121Z,14.51
2019-04-11T15:15:32.277Z,14.79
2019-04-11T15:18:02.755Z,15.08
2019-04-11T15:20:34.140Z,15.31
2019-04-11T15:23:07.929Z,15.22
2019-04-11T15:25:47.173Z,15.15
2019-04-11T15:28:17.378Z,14.86
2019-04-11T15:30:53.470Z,14.37
2019-04-11T15:33:38.651Z,14.09
2019-04-11T15:36:08.920Z,13.97
2019-04-11T15:38:55.820Z,13.79
2019-04-11T15:41:24.710Z,13.64
2019-04-11T15:44:11.683Z,13.69
2019-04-11T15:46:43.189Z,13.73
2019-04-11T15:49:31.710Z,13.65
2019-04-11T15:52:01.963Z,13.51
2019-04-11T15:54:37.190Z,13.35
2019-04-11T15:57:07.088Z,13.39
2019-04-11T15:59:43.822Z,13.21
2019-04-11T16:02:11.867Z,12.94
2019-04-11T16:04:48.418Z,12.87
2019-04-11T16:07:24.882Z,12.99
2019-04-11T16:09:54.277Z,13.23
2019-04-11T16:12:30.169Z,13.22
2019-04-11T16:15:09.212Z,13.22
2019-04-11T16:17:45.599Z,13.22
2019-04-11T16:20:17.873Z,13.40
2019-04-11T16:23:02.460Z,13.38
2019-04-11T16:25:31.095Z,13.39
2019-04-11T16:28:19.099Z,13.49
2019-04-11T16:30:49.425Z,13.57
2019-04-11T16:33:34.909Z,13.44
2019-04-11T16:36:05.179Z,13.07
2019-04-11T16:38:41.512Z,12.82
2019-04-11T16:41:17.871Z,12.54
2019-04-11T16:43:48.123Z,12.46
2019-04-11T16:46:30.490Z,12.22
2019-04-11T16:48:59.019Z,12.10
2019-04-11T16:51:31.132Z,12.10
2019-04-11T16:53:59.058Z,12.34
2019-04-11T16:56:28.612Z,12.40
2019-04-11T16:58:57.209Z,12.37
2019-04-11T17:01:25.895Z,12.37
2019-04-11T17:03:55.088Z,12.31
2019-04-11T17:06:26.498Z,12.36
2019-04-11T17:08:57.016Z,12.27
2019-04-11T17:11:27.080Z,12.19
2019-04-11T17:13:57.330Z,12.07
2019-04-11T17:16:30.102Z,11.75
2019-04-11T17:18:56.798Z,11.60
2019-04-11T17:21:25.457Z,11.61
2019-04-11T17:23:54.284Z,11.65
2019-04-11T17:26:23.825Z,11.55
2019-04-11T17:28:54.321Z,11.40
2019-04-11T17:31:25.742Z,11.25
2019-04-11T17:33:53.618Z,10.99
2019-04-11T17:36:22.299Z,10.81
2019-04-11T17:38:50.831Z,10.59
2019-04-11T17:41:19.482Z,10.59
2019-04-11T17:43:51.484Z,10.60
2019-04-11T17:46:18.840Z,10.57
2019-04-11T17:48:47.442Z,10.63
2019-04-11T17:51:16.054Z,10.50
2019-04-11T17:53:44.618Z,10.31
2019-04-11T17:56:13.343Z,10.31
2019-04-11T17:58:41.888Z,10.41
2019-04-11T18:01:10.444Z,10.45
2019-04-11T18:03:41.832Z,10.48
2019-04-11T18:06:09.275Z,10.46
2019-04-11T18:08:37.823Z,10.30
2019-04-11T18:11:06.512Z,10.09
2019-04-11T18:13:35.107Z,10.05
2019-04-11T18:16:03.942Z,10.04
2019-04-11T18:18:34.907Z,10.00
2019-04-11T18:21:07.090Z,9.94
2019-04-11T18:23:35.797Z,9.86
2019-04-11T18:26:04.664Z,9.81
2019-04-11T18:28:33.300Z,9.83
2019-04-11T18:31:01.837Z,9.77
2019-04-11T18:33:31.788Z,9.71
2019-04-11T18:36:02.398Z,9.69
2019-04-11T18:38:32.124Z,9.51
2019-04-11T18:41:01.202Z,9.43
2019-04-11T18:43:29.827Z,9.30
2019-04-11T18:45:59.043Z,9.08
2019-04-11T18:48:27.663Z,8.96
2019-04-11T18:50:56.433Z,8.93
2019-04-11T18:53:25.034Z,9.01
2019-04-11T18:55:53.661Z,8.97
2019-04-11T18:58:22.263Z,8.92
2019-04-11T19:00:50.882Z,8.86
2019-04-11T19:03:19.731Z,8.91
2019-04-11T19:05:48.367Z,9.06
2019-04-11T19:08:16.999Z,9.16
2019-04-11T19:10:46.086Z,9.17
2019-04-11T19:13:17.000Z,8.95
2019-04-11T19:15:45.722Z,8.68
2019-04-11T19:18:16.587Z,8.39
2019-04-11T19:20:50.024Z,8.31
2019-04-11T19:23:15.912Z,8.45
2019-04-11T19:25:45.269Z,8.54
2019-04-11T19:28:20.102Z,8.49
2019-04-11T19:30:48.695Z,8.24
2019-04-11T19:33:19.211Z,8.16
2019-04-11T19:35:47.592Z,8.18
2019-04-11T19:38:17.826Z,8.21
2019-04-11T19:40:47.218Z,8.25
2019-04-11T19:43:18.949Z,8.29
2019-04-11T19:45:49.830Z,8.27
2019-04-11T19:48:16.670Z,8.19
2019-04-11T19:50:45.289Z,8.13
2019-04-11T19:53:13.803Z,7.89
2019-04-11T19:55:46.746Z,7.84
2019-04-11T19:58:17.537Z,7.81
2019-04-11T20:00:47.526Z,7.86
2019-04-11T20:03:16.199Z,7.76
2019-04-11T20:05:44.833Z,7.82
2019-04-11T20:08:13.438Z,7.86
2019-04-11T20:10:41.980Z,7.89
2019-04-11T20:13:10.580Z,8.05
2019-04-11T20:15:42.118Z,8.15
2019-04-11T20:18:09.517Z,8.14
2019-04-11T20:20:38.127Z,7.93
2019-04-11T20:23:10.432Z,7.78
2019-04-11T20:25:37.068Z,7.75
2019-04-11T20:28:05.671Z,7.63
2019-04-11T20:30:34.293Z,7.54
2019-04-11T20:33:03.679Z,7.39
2019-04-11T20:35:32.431Z,7.24
2019-04-11T20:38:01.031Z,7.33
2019-04-11T20:40:29.959Z,7.25
2019-04-11T20:42:59.467Z,7.09
2019-04-11T20:45:29.742Z,7.12
2019-04-11T20:48:00.341Z,7.31
2019-04-11T20:50:29.497Z,7.34
2019-04-11T20:53:00.468Z,7.15
2019-04-11T20:55:29.331Z,7.11
2019-04-11T20:57:57.800Z,7.02
2019-04-11T21:00:26.546Z,6.96
2019-04-11T21:02:58.134Z,6.65
2019-04-11T21:05:25.334Z,6.49
2019-04-11T21:07:53.832Z,6.55
2019-04-11T21:10:22.299Z,6.61
2019-04-11T21:12:50.763Z,6.56
2019-04-11T21:15:19.464Z,6.56
2019-04-11T21:17:48.133Z,6.56
2019-04-11T21:20:16.742Z,6.63
2019-04-11T21:22:45.255Z,6.76
2019-04-11T21:25:13.886Z,6.79
2019-04-11T21:27:42.513Z,6.68
2019-04-11T21:30:11.299Z,6.51
2019-04-11T21:32:39.806Z,6.42
2019-04-11T21:35:08.580Z,6.27
2019-04-11T21:37:37.132Z,6.13
2019-04-11T21:40:09.361Z,6.05
2019-04-11T21:42:37.884Z,6.08
2019-04-11T21:45:08.501Z,5.99
2019-04-11T21:47:38.658Z,5.97
2019-04-11T21:50:09.384Z,6.05
2019-04-11T21:52:38.645Z,6.09
2019-04-11T21:55:07.291Z,6.17
2019-04-11T21:57:35.839Z,6.35
2019-04-11T22:00:07.450Z,6.27
2019-04-11T22:02:35.972Z,6.14
2019-04-11T22:05:06.059Z,6.14
2019-04-11T22:07:34.641Z,5.91
2019-04-11T22:10:06.954Z,5.87
2019-04-11T22:12:33.562Z,5.83
2019-04-11T22:15:02.088Z,5.67
2019-04-11T22:17:30.884Z,5.57
2019-04-11T22:19:59.492Z,5.72
2019-04-11T22:22:28.040Z,5.73
2019-04-11T22:24:56.651Z,5.93
2019-04-11T22:27:25.221Z,6.12
2019-04-11T22:29:55.328Z,6.42
2019-04-11T22:32:25.868Z,6.73
2019-04-11T22:34:54.287Z,6.80
2019-04-11T22:37:22.824Z,6.80
2019-04-11T22:39:51.451Z,6.72
2019-04-11T22:42:20.050Z,6.60
2019-04-11T22:44:48.740Z,6.51
2019-04-11T22:47:17.274Z,6.33
2019-04-11T22:49:45.806Z,6.33
2019-04-11T22:52:14.335Z,6.43
2019-04-11T22:54:42.930Z,6.60
2019-04-11T22:57:12.170Z,6.60
2019-04-11T22:59:43.871Z,6.67
2019-04-11T23:02:29.898Z,6.84
2019-04-11T23:04:58.554Z,7.04
2019-04-11T23:07:27.115Z,7.22
2019-04-11T23:09:55.736Z,7.20
2019-04-11T23:12:24.283Z,7.10
2019-04-11T23:14:52.878Z,7.02
2019-04-11T23:17:21.416Z,6.90
2019-04-11T23:19:50.117Z,6.91
2019-04-11T23:22:18.634Z,6.88
2019-04-11T23:24:47.199Z,6.88
2019-04-11T23:27:15.669Z,6.85
2019-04-11T23:29:44.783Z,6.80
2019-04-11T23:32:14.434Z,6.85
2019-04-11T23:34:42.947Z,6.98
2019-04-11T23:37:11.401Z,7.05
2019-04-11T23:39:40.007Z,7.27
2019-04-11T23:42:08.506Z,7.50
2019-04-11T23:44:37.184Z,7.42
2019-04-11T23:47:05.806Z,7.06
2019-04-11T23:49:34.254Z,6.99
2019-04-11T23:52:03.127Z,6.90
2019-04-11T23:54:31.636Z,6.93
2019-04-11T23:57:00.942Z,6.86
2019-04-11T23:59:32.101Z,7.07
